createdAt,value
2019-02-03T00:00:16.928Z,34.55
2019-02-03T00:01:00.408Z,34.25
2019-02-03T00:01:39.938Z,34.75
2019-02-03T00:02:13.235Z,35.15
2019-02-03T00:02:46.405Z,34.33
2019-02-03T00:03:19.459Z,34.35
2019-02-03T00:03:52.483Z,34.40
2019-02-03T00:04:25.498Z,34.13
2019-02-03T00:04:58.592Z,33.05
2019-02-03T00:05:31.565Z,34.50
2019-02-03T00:06:06.159Z,35.03
2019-02-03T00:06:39.196Z,34.78
2019-02-03T00:07:12.336Z,34.58
2019-02-03T00:07:45.340Z,33.88
2019-02-03T00:08:18.368Z,34.38
2019-02-03T00:08:51.388Z,34.50
2019-02-03T00:09:24.501Z,35.03
2019-02-03T00:09:57.600Z,33.78
2019-02-03T00:10:30.836Z,34.85
2019-02-03T00:11:04.528Z,33.92
2019-02-03T00:11:37.893Z,34.18
2019-02-03T00:12:10.892Z,33.92
2019-02-03T00:12:44.457Z,34.45
2019-02-03T00:13:17.455Z,34.48
2019-02-03T00:13:53.496Z,34.48
2019-02-03T00:14:26.508Z,34.05
2019-02-03T00:14:59.976Z,34.50
2019-02-03T00:15:32.994Z,33.92
2019-02-03T00:16:06.132Z,33.88
2019-02-03T00:16:39.108Z,34.33
2019-02-03T00:17:12.275Z,33.88
2019-02-03T00:17:45.298Z,34.15
2019-02-03T00:18:18.441Z,34.45
2019-02-03T00:18:51.346Z,33.35
2019-02-03T00:19:26.008Z,34.38
2019-02-03T00:19:58.913Z,33.02
2019-02-03T00:20:31.953Z,32.55
2019-02-03T00:21:05.041Z,33.38
2019-02-03T00:21:38.218Z,33.13
2019-02-03T00:22:11.118Z,32.75
2019-02-03T00:22:44.175Z,32.42
2019-02-03T00:23:17.158Z,33.60
2019-02-03T00:23:50.202Z,34.10
2019-02-03T00:24:23.329Z,33.25
2019-02-03T00:24:56.362Z,33.65
2019-02-03T00:25:29.254Z,33.50
2019-02-03T00:26:02.378Z,34.00
2019-02-03T00:26:35.454Z,33.35
2019-02-03T00:27:08.395Z,33.25
2019-02-03T00:27:41.317Z,33.63
2019-02-03T00:28:14.373Z,34.13
2019-02-03T00:28:47.289Z,33.58
2019-02-03T00:29:20.410Z,33.50
2019-02-03T00:29:53.497Z,33.75
2019-02-03T00:30:26.531Z,33.70
2019-02-03T00:30:59.772Z,33.30
2019-02-03T00:31:32.815Z,33.88
2019-02-03T00:32:06.311Z,33.00
2019-02-03T00:32:39.470Z,33.55
2019-02-03T00:33:12.877Z,32.03
2019-02-03T00:33:48.505Z,32.38
2019-02-03T00:34:21.929Z,32.23
2019-02-03T00:34:54.959Z,33.18
2019-02-03T00:35:27.861Z,32.50
2019-02-03T00:36:02.106Z,32.38
2019-02-03T00:36:35.119Z,33.28
2019-02-03T00:37:15.790Z,32.10
2019-02-03T00:37:43.189Z,33.67
2019-02-03T00:38:21.440Z,32.13
2019-02-03T00:38:51.643Z,31.35
2019-02-03T00:39:25.008Z,31.40
2019-02-03T00:40:00.004Z,32.63
2019-02-03T00:40:33.644Z,30.88
2019-02-03T00:41:06.907Z,31.35
2019-02-03T00:41:39.869Z,31.10
2019-02-03T00:42:13.870Z,31.97
2019-02-03T00:42:48.490Z,30.35
2019-02-03T00:43:21.521Z,30.25
2019-02-03T00:43:54.672Z,30.08
2019-02-03T00:44:28.503Z,29.32
2019-02-03T00:45:04.721Z,29.40
2019-02-03T00:45:37.651Z,30.80
2019-02-03T00:46:10.813Z,29.55
2019-02-03T00:46:43.755Z,28.32
2019-02-03T00:47:16.917Z,28.77
2019-02-03T00:47:50.353Z,28.90
2019-02-03T00:48:23.394Z,28.00
2019-02-03T00:48:56.533Z,28.20
2019-02-03T00:49:29.652Z,28.17
2019-02-03T00:50:04.157Z,27.70
2019-02-03T00:50:37.231Z,27.95
2019-02-03T00:51:10.213Z,27.35
2019-02-03T00:51:43.317Z,27.10
2019-02-03T00:52:16.374Z,27.85
2019-02-03T00:52:49.397Z,27.60
2019-02-03T00:53:22.565Z,26.23
2019-02-03T00:53:55.632Z,27.62
2019-02-03T00:54:28.748Z,26.87
2019-02-03T00:55:01.791Z,26.17
2019-02-03T00:55:34.863Z,26.35
2019-02-03T00:56:07.919Z,26.40
2019-02-03T00:56:41.005Z,26.75
2019-02-03T00:57:14.075Z,26.75
2019-02-03T00:57:47.333Z,26.50
2019-02-03T00:58:21.001Z,26.70
2019-02-03T00:58:55.504Z,26.40
2019-02-03T00:59:28.762Z,26.65
2019-02-03T01:00:01.906Z,26.05
2019-02-03T01:00:35.337Z,26.00
2019-02-03T01:01:10.010Z,26.35
2019-02-03T01:01:43.418Z,26.25
2019-02-03T01:02:16.336Z,25.80
2019-02-03T01:02:49.981Z,25.70
2019-02-03T01:03:23.076Z,26.00
2019-02-03T01:03:56.201Z,25.55
2019-02-03T01:04:29.293Z,26.02
2019-02-03T01:05:02.621Z,26.27
2019-02-03T01:05:36.050Z,25.77
2019-02-03T01:06:09.395Z,25.75
2019-02-03T01:06:42.597Z,25.45
2019-02-03T01:07:26.813Z,25.25
2019-02-03T01:07:50.643Z,24.77
2019-02-03T01:08:23.855Z,25.37
2019-02-03T01:08:56.841Z,25.23
2019-02-03T01:09:30.013Z,25.62
2019-02-03T01:10:04.386Z,24.98
2019-02-03T01:10:37.523Z,24.47
2019-02-03T01:11:10.528Z,25.05
2019-02-03T01:11:43.645Z,24.95
2019-02-03T01:12:16.642Z,24.67
2019-02-03T01:12:51.352Z,25.40
2019-02-03T01:13:24.252Z,25.27
2019-02-03T01:13:57.387Z,24.90
2019-02-03T01:14:30.377Z,25.27
2019-02-03T01:15:05.115Z,24.40
2019-02-03T01:15:38.104Z,24.95
2019-02-03T01:16:11.116Z,24.37
2019-02-03T01:16:44.131Z,24.67
2019-02-03T01:17:17.178Z,25.12
2019-02-03T01:17:50.238Z,24.63
2019-02-03T01:18:23.291Z,24.57
2019-02-03T01:18:56.295Z,24.43
2019-02-03T01:19:29.317Z,24.60
2019-02-03T01:20:02.569Z,24.87
2019-02-03T01:20:35.756Z,24.47
2019-02-03T01:21:09.043Z,24.98
2019-02-03T01:21:42.095Z,25.00
2019-02-03T01:22:15.642Z,24.63
2019-02-03T01:22:48.752Z,24.50
2019-02-03T01:23:22.056Z,24.20
2019-02-03T01:23:55.002Z,24.60
2019-02-03T01:24:27.918Z,24.30
2019-02-03T01:25:00.947Z,24.63
2019-02-03T01:25:33.941Z,25.08
2019-02-03T01:26:07.105Z,23.95
2019-02-03T01:26:40.094Z,24.67
2019-02-03T01:27:13.127Z,24.50
2019-02-03T01:27:46.141Z,24.47
2019-02-03T01:28:19.377Z,24.67
2019-02-03T01:28:52.377Z,24.63
2019-02-03T01:29:25.311Z,25.30
2019-02-03T01:29:58.327Z,24.47
2019-02-03T01:30:31.402Z,24.12
2019-02-03T01:31:04.495Z,24.25
2019-02-03T01:31:37.515Z,24.27
2019-02-03T01:32:10.510Z,24.05
2019-02-03T01:32:44.987Z,23.80
2019-02-03T01:33:17.970Z,23.87
2019-02-03T01:33:51.125Z,23.98
2019-02-03T01:34:24.061Z,23.95
2019-02-03T01:34:57.092Z,23.98
2019-02-03T01:35:30.125Z,23.60
2019-02-03T01:36:03.265Z,24.35
2019-02-03T01:36:36.279Z,24.12
2019-02-03T01:37:09.427Z,24.37
2019-02-03T01:37:42.595Z,23.62
2019-02-03T01:38:15.954Z,23.92
2019-02-03T01:38:48.875Z,23.95
2019-02-03T01:39:22.259Z,23.27
2019-02-03T01:39:55.249Z,24.20
2019-02-03T01:40:28.685Z,24.07
2019-02-03T01:41:02.835Z,23.77
2019-02-03T01:41:35.930Z,23.80
2019-02-03T01:42:08.935Z,24.07
2019-02-03T01:42:42.159Z,24.05
2019-02-03T01:43:15.192Z,23.95
2019-02-03T01:43:48.495Z,23.95
2019-02-03T01:44:23.195Z,24.12
2019-02-03T01:44:56.412Z,23.92
2019-02-03T01:45:29.435Z,24.35
2019-02-03T01:46:02.585Z,23.90
2019-02-03T01:46:35.679Z,24.25
2019-02-03T01:47:08.828Z,24.67
2019-02-03T01:47:42.151Z,23.87
2019-02-03T01:48:15.180Z,24.25
2019-02-03T01:48:48.205Z,23.95
2019-02-03T01:49:21.143Z,24.20
2019-02-03T01:49:54.133Z,24.80
2019-02-03T01:50:28.279Z,24.23
2019-02-03T01:51:01.412Z,24.02
2019-02-03T01:51:35.751Z,23.50
2019-02-03T01:52:08.782Z,23.87
2019-02-03T01:52:41.999Z,23.90
2019-02-03T01:53:15.115Z,24.07
2019-02-03T01:53:49.689Z,24.12
2019-02-03T01:54:22.591Z,24.23
2019-02-03T01:54:55.645Z,23.90
2019-02-03T01:55:28.666Z,24.32
2019-02-03T01:56:01.751Z,24.45
2019-02-03T01:56:34.675Z,24.02
2019-02-03T01:57:07.704Z,24.12
2019-02-03T01:57:40.687Z,24.30
2019-02-03T01:58:13.783Z,23.95
2019-02-03T01:58:47.077Z,24.00
2019-02-03T01:59:22.697Z,24.40
2019-02-03T01:59:56.010Z,23.98
2019-02-03T02:00:29.254Z,23.98
2019-02-03T02:01:03.309Z,23.80
2019-02-03T02:01:37.917Z,23.60
2019-02-03T02:02:11.368Z,23.57
2019-02-03T02:02:45.743Z,23.60
2019-02-03T02:03:19.094Z,23.85
2019-02-03T02:03:52.089Z,23.95
2019-02-03T02:04:25.676Z,23.85
2019-02-03T02:04:58.869Z,23.95
2019-02-03T02:05:31.988Z,23.45
2019-02-03T02:06:05.184Z,23.50
2019-02-03T02:06:38.628Z,23.73
2019-02-03T02:07:11.645Z,23.90
2019-02-03T02:07:51.517Z,24.25
2019-02-03T02:08:20.736Z,23.50
2019-02-03T02:08:54.546Z,23.90
2019-02-03T02:09:27.549Z,23.40
2019-02-03T02:10:00.459Z,24.15
2019-02-03T02:10:33.383Z,23.55
2019-02-03T02:11:06.418Z,23.98
2019-02-03T02:11:39.404Z,23.38
2019-02-03T02:12:12.460Z,23.55
2019-02-03T02:12:45.592Z,23.62
2019-02-03T02:13:18.732Z,23.40
2019-02-03T02:13:51.653Z,23.95
2019-02-03T02:14:24.952Z,23.45
2019-02-03T02:14:57.844Z,23.67
2019-02-03T02:15:31.011Z,23.38
2019-02-03T02:16:04.394Z,23.70
2019-02-03T02:16:37.358Z,24.00
2019-02-03T02:17:10.460Z,23.25
2019-02-03T02:17:43.516Z,23.90
2019-02-03T02:18:16.499Z,24.10
2019-02-03T02:18:49.518Z,23.70
2019-02-03T02:19:22.798Z,23.92
2019-02-03T02:19:55.942Z,24.32
2019-02-03T02:20:29.356Z,23.67
2019-02-03T02:21:02.652Z,23.52
2019-02-03T02:21:36.038Z,23.73
2019-02-03T02:22:09.082Z,24.02
2019-02-03T02:22:42.622Z,24.25
2019-02-03T02:23:15.682Z,24.32
2019-02-03T02:23:48.688Z,23.85
2019-02-03T02:24:21.844Z,24.40
2019-02-03T02:24:54.922Z,24.32
2019-02-03T02:25:28.169Z,24.35
2019-02-03T02:26:01.204Z,24.07
2019-02-03T02:26:34.494Z,24.20
2019-02-03T02:27:07.494Z,24.60
2019-02-03T02:27:42.090Z,24.27
2019-02-03T02:28:15.146Z,24.02
2019-02-03T02:28:48.160Z,24.30
2019-02-03T02:29:22.239Z,24.07
2019-02-03T02:29:55.256Z,24.02
2019-02-03T02:30:28.366Z,23.95
2019-02-03T02:31:01.603Z,24.00
2019-02-03T02:31:34.706Z,24.10
2019-02-03T02:32:07.626Z,23.65
2019-02-03T02:32:40.617Z,24.35
2019-02-03T02:33:13.638Z,24.18
2019-02-03T02:33:46.642Z,24.50
2019-02-03T02:34:19.618Z,23.80
2019-02-03T02:34:53.618Z,24.25
2019-02-03T02:35:26.670Z,23.65
2019-02-03T02:35:59.567Z,23.90
2019-02-03T02:36:32.902Z,23.70
2019-02-03T02:37:05.885Z,24.15
2019-02-03T02:37:39.336Z,23.62
2019-02-03T02:38:13.311Z,24.10
2019-02-03T02:38:46.788Z,24.40
2019-02-03T02:39:19.912Z,24.12
2019-02-03T02:39:53.088Z,24.15
2019-02-03T02:40:26.111Z,23.98
2019-02-03T02:40:59.377Z,24.07
2019-02-03T02:41:32.366Z,24.12
2019-02-03T02:42:05.506Z,23.87
2019-02-03T02:42:38.536Z,23.85
2019-02-03T02:43:11.676Z,23.85
2019-02-03T02:43:44.552Z,24.15
2019-02-03T02:44:17.488Z,23.62
2019-02-03T02:44:50.524Z,24.18
2019-02-03T02:45:23.538Z,23.75
2019-02-03T02:45:56.525Z,23.65
2019-02-03T02:46:29.570Z,24.30
2019-02-03T02:47:02.622Z,23.90
2019-02-03T02:47:35.716Z,24.12
2019-02-03T02:48:08.816Z,23.73
2019-02-03T02:48:41.987Z,23.47
2019-02-03T02:49:15.004Z,23.70
2019-02-03T02:49:47.948Z,23.85
2019-02-03T02:50:24.997Z,23.55
2019-02-03T02:50:58.450Z,24.00
2019-02-03T02:51:31.491Z,23.55
2019-02-03T02:52:04.551Z,23.40
2019-02-03T02:52:37.674Z,23.45
2019-02-03T02:53:10.787Z,23.70
2019-02-03T02:53:43.718Z,23.25
2019-02-03T02:54:16.680Z,23.70
2019-02-03T02:54:49.880Z,23.67
2019-02-03T02:55:22.926Z,23.70
2019-02-03T02:55:56.388Z,23.50
2019-02-03T02:56:29.481Z,23.22
2019-02-03T02:57:03.101Z,23.42
2019-02-03T02:57:36.264Z,23.62
2019-02-03T02:58:09.686Z,23.45
2019-02-03T02:58:42.762Z,23.10
2019-02-03T02:59:17.594Z,23.45
2019-02-03T02:59:50.786Z,23.30
2019-02-03T03:00:24.434Z,23.20
2019-02-03T03:00:57.627Z,23.00
2019-02-03T03:01:30.930Z,22.90
2019-02-03T03:02:04.189Z,23.40
2019-02-03T03:02:37.286Z,22.98
2019-02-03T03:03:10.459Z,22.80
2019-02-03T03:03:44.704Z,22.30
2019-02-03T03:04:17.788Z,22.50
2019-02-03T03:04:50.859Z,22.30
2019-02-03T03:05:23.925Z,23.07
2019-02-03T03:05:57.000Z,22.40
2019-02-03T03:06:30.312Z,22.85
2019-02-03T03:07:03.769Z,22.40
2019-02-03T03:07:36.960Z,22.50
2019-02-03T03:08:18.505Z,22.73
2019-02-03T03:08:44.962Z,22.45
2019-02-03T03:09:18.070Z,22.50
2019-02-03T03:09:51.019Z,22.45
2019-02-03T03:10:24.333Z,22.30
2019-02-03T03:10:57.364Z,22.25
2019-02-03T03:11:31.418Z,22.10
2019-02-03T03:12:04.581Z,22.50
2019-02-03T03:12:37.627Z,22.37
2019-02-03T03:13:10.604Z,22.20
2019-02-03T03:13:43.720Z,22.30
2019-02-03T03:14:16.776Z,22.40
2019-02-03T03:14:49.865Z,21.95
2019-02-03T03:15:23.056Z,21.97
2019-02-03T03:15:56.357Z,22.02
2019-02-03T03:16:29.496Z,22.45
2019-02-03T03:17:02.574Z,21.68
2019-02-03T03:17:37.440Z,22.10
2019-02-03T03:18:10.599Z,21.77
2019-02-03T03:18:44.179Z,21.65
2019-02-03T03:19:17.266Z,22.17
2019-02-03T03:19:50.725Z,21.87
2019-02-03T03:20:23.890Z,22.17
2019-02-03T03:20:57.311Z,21.68
2019-02-03T03:21:30.324Z,22.25
2019-02-03T03:22:03.992Z,21.73
2019-02-03T03:22:37.010Z,22.27
2019-02-03T03:23:10.083Z,22.05
2019-02-03T03:23:44.592Z,22.10
2019-02-03T03:24:17.631Z,22.10
2019-02-03T03:24:50.685Z,22.10
2019-02-03T03:25:23.946Z,21.60
2019-02-03T03:25:56.938Z,21.52
2019-02-03T03:26:30.015Z,21.80
2019-02-03T03:27:03.092Z,21.60
2019-02-03T03:27:36.201Z,21.80
2019-02-03T03:28:09.392Z,21.48
2019-02-03T03:28:44.227Z,22.00
2019-02-03T03:29:17.263Z,21.40
2019-02-03T03:29:50.291Z,21.65
2019-02-03T03:30:27.212Z,21.25
2019-02-03T03:31:00.266Z,21.60
2019-02-03T03:31:33.264Z,21.27
2019-02-03T03:32:06.383Z,21.73
2019-02-03T03:32:39.348Z,21.90
2019-02-03T03:33:12.518Z,21.68
2019-02-03T03:33:45.426Z,21.60
2019-02-03T03:34:18.476Z,21.30
2019-02-03T03:34:51.502Z,21.40
2019-02-03T03:35:25.674Z,21.00
2019-02-03T03:35:59.991Z,21.15
2019-02-03T03:36:33.021Z,21.07
2019-02-03T03:37:06.064Z,21.30
2019-02-03T03:37:38.979Z,21.12
2019-02-03T03:38:12.056Z,21.57
2019-02-03T03:38:45.104Z,21.30
2019-02-03T03:39:18.131Z,20.90
2019-02-03T03:39:51.163Z,21.00
2019-02-03T03:40:27.291Z,21.33
2019-02-03T03:41:00.370Z,21.70
2019-02-03T03:41:33.785Z,21.33
2019-02-03T03:42:06.955Z,21.65
2019-02-03T03:42:39.957Z,21.60
2019-02-03T03:43:12.984Z,21.40
2019-02-03T03:43:46.508Z,21.65
2019-02-03T03:44:19.483Z,21.42
2019-02-03T03:44:52.493Z,21.52
2019-02-03T03:45:25.840Z,21.30
2019-02-03T03:45:58.899Z,21.12
2019-02-03T03:46:31.827Z,21.73
2019-02-03T03:47:04.950Z,21.37
2019-02-03T03:47:37.901Z,21.87
2019-02-03T03:48:10.935Z,21.57
2019-02-03T03:48:43.948Z,21.55
2019-02-03T03:49:16.977Z,21.48
2019-02-03T03:49:50.003Z,22.10
2019-02-03T03:50:23.264Z,21.68
2019-02-03T03:50:56.268Z,21.70
2019-02-03T03:51:29.387Z,21.05
2019-02-03T03:52:02.521Z,21.37
2019-02-03T03:52:39.244Z,21.35
2019-02-03T03:53:10.560Z,21.25
2019-02-03T03:53:43.453Z,21.50
2019-02-03T03:54:16.479Z,21.40
2019-02-03T03:54:49.383Z,21.23
2019-02-03T03:55:22.509Z,20.85
2019-02-03T03:55:55.520Z,21.52
2019-02-03T03:56:28.435Z,22.02
2019-02-03T03:57:01.428Z,21.70
2019-02-03T03:57:34.464Z,21.00
2019-02-03T03:58:07.559Z,21.12
2019-02-03T03:58:40.581Z,21.42
2019-02-03T03:59:13.680Z,21.45
2019-02-03T03:59:47.109Z,21.48
2019-02-03T04:00:23.400Z,21.48
2019-02-03T04:00:56.713Z,21.33
2019-02-03T04:01:29.719Z,21.30
2019-02-03T04:02:03.323Z,21.42
2019-02-03T04:02:36.440Z,21.35
2019-02-03T04:03:09.780Z,21.27
2019-02-03T04:03:42.789Z,21.30
2019-02-03T04:04:16.486Z,21.73
2019-02-03T04:04:49.689Z,21.27
2019-02-03T04:05:22.942Z,21.37
2019-02-03T04:05:55.947Z,21.35
2019-02-03T04:06:29.985Z,21.48
2019-02-03T04:07:03.113Z,21.10
2019-02-03T04:07:36.190Z,21.20
2019-02-03T04:08:09.180Z,20.97
2019-02-03T04:08:45.215Z,21.27
2019-02-03T04:09:17.009Z,21.20
2019-02-03T04:09:50.458Z,22.07
2019-02-03T04:10:23.914Z,21.50
2019-02-03T04:10:56.969Z,21.42
2019-02-03T04:11:30.029Z,21.50
2019-02-03T04:12:04.657Z,21.17
2019-02-03T04:12:37.687Z,21.20
2019-02-03T04:13:10.644Z,21.45
2019-02-03T04:13:43.642Z,21.40
2019-02-03T04:14:16.686Z,21.57
2019-02-03T04:14:49.672Z,21.20
2019-02-03T04:15:23.509Z,21.45
2019-02-03T04:15:56.504Z,21.97
2019-02-03T04:16:29.577Z,21.50
2019-02-03T04:17:02.674Z,21.40
2019-02-03T04:17:36.092Z,21.40
2019-02-03T04:18:10.196Z,21.30
2019-02-03T04:18:43.168Z,21.70
2019-02-03T04:19:16.160Z,21.33
2019-02-03T04:19:49.014Z,21.25
2019-02-03T04:20:27.922Z,21.30
2019-02-03T04:21:00.968Z,21.87
2019-02-03T04:21:33.853Z,21.60
2019-02-03T04:22:06.970Z,21.70
2019-02-03T04:22:39.989Z,21.45
2019-02-03T04:23:12.994Z,21.95
2019-02-03T04:23:46.306Z,21.57
2019-02-03T04:24:19.344Z,21.65
2019-02-03T04:24:52.648Z,21.48
2019-02-03T04:25:25.760Z,21.27
2019-02-03T04:25:58.639Z,21.45
2019-02-03T04:26:31.799Z,21.23
2019-02-03T04:27:05.692Z,21.20
2019-02-03T04:27:38.680Z,21.37
2019-02-03T04:28:11.562Z,21.55
2019-02-03T04:28:46.340Z,21.10
2019-02-03T04:29:19.275Z,21.30
2019-02-03T04:29:52.094Z,22.02
2019-02-03T04:30:25.935Z,21.73
2019-02-03T04:31:00.160Z,21.40
2019-02-03T04:31:33.076Z,21.37
2019-02-03T04:32:06.104Z,22.00
2019-02-03T04:32:39.104Z,21.48
2019-02-03T04:33:12.061Z,21.73
2019-02-03T04:33:44.955Z,21.35
2019-02-03T04:34:18.092Z,21.23
2019-02-03T04:34:51.131Z,21.33
2019-02-03T04:35:24.156Z,21.68
2019-02-03T04:35:57.032Z,21.50
2019-02-03T04:36:30.219Z,21.20
2019-02-03T04:37:03.301Z,21.73
2019-02-03T04:37:36.354Z,21.30
2019-02-03T04:38:09.364Z,22.15
2019-02-03T04:38:42.304Z,21.55
2019-02-03T04:39:15.265Z,21.40
2019-02-03T04:39:48.261Z,22.20
2019-02-03T04:40:21.804Z,21.12
2019-02-03T04:40:54.879Z,21.87
2019-02-03T04:41:27.990Z,21.57
2019-02-03T04:42:01.609Z,21.68
2019-02-03T04:42:34.808Z,21.57
2019-02-03T04:43:08.403Z,20.82
2019-02-03T04:43:41.358Z,21.00
2019-02-03T04:44:14.670Z,21.23
2019-02-03T04:44:50.381Z,20.90
2019-02-03T04:45:23.908Z,21.30
2019-02-03T04:45:57.060Z,20.97
2019-02-03T04:46:30.067Z,21.15
2019-02-03T04:47:03.190Z,20.50
2019-02-03T04:47:36.097Z,20.82
2019-02-03T04:48:09.129Z,21.05
2019-02-03T04:48:42.024Z,20.85
2019-02-03T04:49:15.031Z,20.70
2019-02-03T04:49:48.128Z,20.88
2019-02-03T04:50:21.456Z,20.70
2019-02-03T04:50:54.355Z,20.82
2019-02-03T04:51:27.406Z,20.82
2019-02-03T04:52:00.433Z,20.43
2019-02-03T04:52:33.594Z,20.90
2019-02-03T04:53:06.500Z,20.60
2019-02-03T04:53:39.429Z,21.05
2019-02-03T04:54:12.472Z,21.00
2019-02-03T04:54:45.430Z,20.70
2019-02-03T04:55:18.908Z,20.70
2019-02-03T04:55:51.854Z,20.68
2019-02-03T04:56:24.857Z,21.23
2019-02-03T04:56:57.799Z,20.70
2019-02-03T04:57:30.793Z,21.00
2019-02-03T04:58:04.342Z,20.88
2019-02-03T04:58:37.344Z,21.07
2019-02-03T04:59:10.703Z,20.97
2019-02-03T04:59:43.579Z,20.97
2019-02-03T05:00:21.986Z,20.70
2019-02-03T05:00:55.202Z,21.10
2019-02-03T05:01:28.255Z,20.80
2019-02-03T05:02:01.143Z,20.90
2019-02-03T05:02:34.686Z,20.90
2019-02-03T05:03:07.703Z,20.68
2019-02-03T05:03:41.200Z,20.82
2019-02-03T05:04:14.321Z,20.60
2019-02-03T05:04:47.536Z,20.95
2019-02-03T05:05:20.725Z,20.70
2019-02-03T05:05:53.693Z,21.20
2019-02-03T05:06:26.644Z,20.97
2019-02-03T05:06:59.656Z,20.90
2019-02-03T05:07:33.066Z,20.77
2019-02-03T05:08:06.118Z,20.97
2019-02-03T05:08:38.937Z,20.80
2019-02-03T05:09:11.922Z,21.02
2019-02-03T05:09:44.737Z,21.25
2019-02-03T05:10:18.516Z,20.95
2019-02-03T05:10:51.498Z,21.15
2019-02-03T05:11:26.254Z,21.00
2019-02-03T05:11:59.346Z,20.70
2019-02-03T05:12:32.422Z,21.05
2019-02-03T05:13:06.420Z,20.68
2019-02-03T05:13:39.544Z,21.20
2019-02-03T05:14:12.349Z,20.75
2019-02-03T05:14:45.309Z,20.65
2019-02-03T05:15:21.307Z,20.90
2019-02-03T05:15:54.484Z,20.72
2019-02-03T05:16:27.595Z,21.00
2019-02-03T05:17:00.637Z,20.70
2019-02-03T05:17:33.754Z,20.75
2019-02-03T05:18:06.786Z,20.60
2019-02-03T05:18:39.908Z,21.10
2019-02-03T05:19:12.928Z,21.12
2019-02-03T05:19:46.057Z,21.15
2019-02-03T05:20:24.866Z,20.70
2019-02-03T05:20:57.862Z,20.70
2019-02-03T05:21:31.040Z,20.80
2019-02-03T05:22:04.068Z,21.20
2019-02-03T05:22:37.274Z,20.77
2019-02-03T05:23:10.563Z,20.65
2019-02-03T05:23:43.492Z,20.50
2019-02-03T05:24:16.854Z,21.27
2019-02-03T05:24:49.823Z,21.15
2019-02-03T05:25:23.449Z,21.10
2019-02-03T05:25:56.483Z,20.48
2019-02-03T05:26:29.491Z,21.05
2019-02-03T05:27:02.679Z,20.90
2019-02-03T05:27:35.681Z,21.30
2019-02-03T05:28:08.708Z,20.60
2019-02-03T05:28:41.782Z,21.07
2019-02-03T05:29:15.718Z,21.02
2019-02-03T05:29:48.805Z,20.90
2019-02-03T05:30:28.723Z,20.70
2019-02-03T05:31:01.621Z,20.90
2019-02-03T05:31:34.581Z,21.17
2019-02-03T05:32:07.592Z,21.00
2019-02-03T05:32:40.535Z,20.92
2019-02-03T05:33:13.484Z,20.75
2019-02-03T05:33:46.552Z,20.85
2019-02-03T05:34:19.624Z,20.75
2019-02-03T05:34:52.991Z,20.95
2019-02-03T05:35:26.037Z,20.70
2019-02-03T05:35:59.122Z,20.80
2019-02-03T05:36:32.432Z,20.60
2019-02-03T05:37:05.442Z,20.85
2019-02-03T05:37:38.470Z,21.07
2019-02-03T05:38:11.468Z,20.70
2019-02-03T05:38:44.490Z,20.55
2019-02-03T05:39:25.005Z,20.52
2019-02-03T05:39:52.486Z,20.60
2019-02-03T05:40:25.383Z,20.85
2019-02-03T05:40:58.327Z,21.10
2019-02-03T05:41:31.371Z,20.82
2019-02-03T05:42:04.455Z,20.55
2019-02-03T05:42:37.583Z,20.90
2019-02-03T05:43:10.629Z,21.12
2019-02-03T05:43:43.802Z,20.70
2019-02-03T05:44:16.972Z,20.92
2019-02-03T05:44:50.118Z,20.92
2019-02-03T05:45:23.246Z,21.23
2019-02-03T05:45:56.643Z,20.70
2019-02-03T05:46:29.683Z,20.40
2019-02-03T05:47:03.299Z,20.80
2019-02-03T05:47:36.295Z,20.60
2019-02-03T05:48:09.468Z,20.50
2019-02-03T05:48:42.355Z,20.55
2019-02-03T05:49:15.149Z,20.77
2019-02-03T05:49:48.177Z,20.88
2019-02-03T05:50:21.500Z,20.75
2019-02-03T05:50:54.416Z,21.10
2019-02-03T05:51:27.447Z,20.80
2019-02-03T05:52:00.457Z,20.80
2019-02-03T05:52:33.525Z,20.57
2019-02-03T05:53:06.633Z,20.95
2019-02-03T05:53:39.673Z,20.60
2019-02-03T05:54:12.600Z,20.50
2019-02-03T05:54:45.590Z,20.60
2019-02-03T05:55:18.943Z,21.00
2019-02-03T05:55:51.930Z,21.33
2019-02-03T05:56:25.043Z,20.90
2019-02-03T05:56:57.980Z,20.77
2019-02-03T05:57:31.003Z,20.57
2019-02-03T05:58:04.128Z,21.52
2019-02-03T05:58:37.048Z,21.00
2019-02-03T05:59:10.958Z,20.75
2019-02-03T05:59:44.101Z,20.85
2019-02-03T06:00:34.884Z,20.60
2019-02-03T06:01:08.311Z,20.80
2019-02-03T06:01:41.452Z,20.95
2019-02-03T06:02:14.424Z,20.80
2019-02-03T06:02:47.530Z,20.72
2019-02-03T06:03:20.498Z,20.97
2019-02-03T06:03:53.555Z,21.05
2019-02-03T06:04:26.542Z,21.35
2019-02-03T06:05:00.583Z,20.90
2019-02-03T06:05:33.616Z,21.07
2019-02-03T06:06:06.759Z,20.60
2019-02-03T06:06:39.803Z,20.77
2019-02-03T06:07:13.044Z,20.80
2019-02-03T06:07:46.101Z,21.10
2019-02-03T06:08:19.148Z,20.80
2019-02-03T06:08:52.283Z,20.77
2019-02-03T06:09:36.050Z,20.70
2019-02-03T06:10:00.434Z,20.97
2019-02-03T06:10:33.481Z,21.20
2019-02-03T06:11:07.488Z,21.27
2019-02-03T06:11:40.530Z,20.60
2019-02-03T06:12:13.796Z,20.80
2019-02-03T06:12:46.899Z,21.10
2019-02-03T06:13:20.394Z,20.70
2019-02-03T06:13:53.338Z,20.82
2019-02-03T06:14:26.842Z,20.65
2019-02-03T06:14:59.808Z,20.70
2019-02-03T06:15:32.819Z,20.77
2019-02-03T06:16:05.857Z,20.40
2019-02-03T06:16:38.852Z,20.77
2019-02-03T06:17:11.882Z,20.70
2019-02-03T06:17:45.041Z,20.95
2019-02-03T06:18:18.251Z,20.95
2019-02-03T06:18:51.183Z,20.90
2019-02-03T06:19:24.241Z,21.17
2019-02-03T06:19:57.140Z,20.80
2019-02-03T06:20:30.259Z,20.70
2019-02-03T06:21:03.275Z,21.10
2019-02-03T06:21:36.268Z,20.97
2019-02-03T06:22:09.377Z,20.62
2019-02-03T06:22:42.830Z,20.90
2019-02-03T06:23:15.831Z,20.68
2019-02-03T06:23:48.918Z,20.62
2019-02-03T06:24:21.828Z,20.70
2019-02-03T06:24:54.888Z,20.52
2019-02-03T06:25:28.029Z,20.60
2019-02-03T06:26:01.536Z,20.85
2019-02-03T06:26:34.511Z,20.70
2019-02-03T06:27:07.571Z,20.97
2019-02-03T06:27:40.690Z,20.60
2019-02-03T06:28:14.166Z,20.92
2019-02-03T06:28:47.045Z,20.68
2019-02-03T06:29:20.540Z,20.80
2019-02-03T06:29:53.558Z,20.88
2019-02-03T06:31:21.529Z,20.20
2019-02-03T06:31:54.520Z,20.75
2019-02-03T06:32:27.482Z,20.68
2019-02-03T06:33:00.433Z,20.88
2019-02-03T06:33:33.498Z,21.00
2019-02-03T06:34:07.674Z,20.72
2019-02-03T06:34:40.724Z,20.62
2019-02-03T06:35:13.744Z,20.70
2019-02-03T06:35:46.687Z,20.60
2019-02-03T06:36:20.731Z,20.70
2019-02-03T06:36:53.774Z,21.05
2019-02-03T06:37:26.798Z,21.00
2019-02-03T06:37:59.737Z,20.80
2019-02-03T06:38:32.824Z,20.70
2019-02-03T06:39:08.908Z,20.95
2019-02-03T06:39:48.650Z,20.85
2019-02-03T06:40:16.962Z,20.85
2019-02-03T06:40:50.131Z,20.82
2019-02-03T06:41:23.180Z,20.80
2019-02-03T06:41:56.215Z,20.60
2019-02-03T06:42:29.227Z,21.00
2019-02-03T06:43:02.646Z,21.12
2019-02-03T06:43:35.678Z,21.10
2019-02-03T06:44:10.757Z,21.17
2019-02-03T06:44:43.782Z,20.50
2019-02-03T06:45:25.836Z,21.30
2019-02-03T06:46:21.144Z,20.50
2019-02-03T06:47:02.708Z,20.90
2019-02-03T06:47:35.838Z,20.92
2019-02-03T06:48:10.934Z,20.77
2019-02-03T06:48:44.274Z,20.60
2019-02-03T06:49:22.908Z,21.15
2019-02-03T06:49:55.822Z,21.23
2019-02-03T06:50:28.941Z,20.88
2019-02-03T06:51:01.854Z,21.02
2019-02-03T06:51:35.008Z,20.85
2019-02-03T06:52:08.418Z,20.62
2019-02-03T06:52:41.488Z,21.35
2019-02-03T06:53:14.794Z,20.88
2019-02-03T06:53:47.850Z,20.72
2019-02-03T06:54:21.378Z,20.68
2019-02-03T06:54:54.332Z,20.95
2019-02-03T06:55:27.322Z,20.90
2019-02-03T06:56:00.761Z,21.05
2019-02-03T06:56:33.752Z,21.23
2019-02-03T06:57:07.483Z,21.10
2019-02-03T06:57:40.485Z,21.10
2019-02-03T06:58:13.544Z,21.05
2019-02-03T06:58:46.564Z,21.20
2019-02-03T06:59:19.610Z,21.00
2019-02-03T06:59:52.496Z,20.88
2019-02-03T07:00:25.579Z,21.60
2019-02-03T07:00:58.678Z,21.02
2019-02-03T07:01:33.291Z,21.10
2019-02-03T07:02:06.386Z,20.90
2019-02-03T07:02:39.515Z,21.02
2019-02-03T07:03:12.430Z,20.92
2019-02-03T07:03:45.477Z,21.23
2019-02-03T07:04:18.601Z,20.90
2019-02-03T07:04:51.527Z,20.92
2019-02-03T07:05:24.518Z,21.10
2019-02-03T07:05:57.562Z,20.92
2019-02-03T07:06:30.556Z,21.10
2019-02-03T07:07:04.521Z,21.20
2019-02-03T07:07:37.674Z,21.25
2019-02-03T07:08:10.943Z,20.97
2019-02-03T07:08:44.030Z,20.77
2019-02-03T07:09:18.722Z,20.82
2019-02-03T07:10:00.392Z,21.17
2019-02-03T07:10:28.470Z,21.17
2019-02-03T07:11:01.790Z,20.90